createdAt,value
2019-01-24T00:01:49.516Z,-3.75
2019-01-24T00:04:18.377Z,-3.75
2019-01-24T00:06:47.274Z,-3.78
2019-01-24T00:09:16.145Z,-3.76
2019-01-24T00:11:44.952Z,-3.78
2019-01-24T00:14:13.754Z,-3.75
2019-01-24T00:16:42.601Z,-3.82
2019-01-24T00:19:11.590Z,-3.79
2019-01-24T00:21:40.440Z,-3.80
2019-01-24T00:24:09.232Z,-3.82
2019-01-24T00:26:38.011Z,-3.78
2019-01-24T00:29:06.948Z,-3.83
2019-01-24T00:31:35.802Z,-3.79
2019-01-24T00:34:04.739Z,-3.76
2019-01-24T00:36:33.540Z,-3.84
2019-01-24T00:39:02.480Z,-3.85
2019-01-24T00:41:31.344Z,-3.83
2019-01-24T00:44:00.222Z,-3.84
2019-01-24T00:46:29.081Z,-3.85
2019-01-24T00:48:57.880Z,-3.81
2019-01-24T00:51:26.672Z,-3.80
2019-01-24T00:53:56.390Z,-3.87
2019-01-24T00:56:25.173Z,-3.88
2019-01-24T00:58:54.014Z,-3.89
2019-01-24T01:01:22.789Z,-3.86
2019-01-24T01:03:51.667Z,-3.88
2019-01-24T01:06:20.616Z,-3.90
2019-01-24T01:08:49.486Z,-3.86
2019-01-24T01:11:18.457Z,-3.87
2019-01-24T01:13:47.394Z,-3.83
2019-01-24T01:16:16.247Z,-3.79
2019-01-24T01:18:45.130Z,-3.85
2019-01-24T01:21:14.019Z,-3.86
2019-01-24T01:23:42.982Z,-3.85
2019-01-24T01:26:11.921Z,-3.83
2019-01-24T01:28:40.794Z,-3.84
2019-01-24T01:31:09.660Z,-3.84
2019-01-24T01:33:38.522Z,-3.86
2019-01-24T01:36:07.380Z,-3.87
2019-01-24T01:38:36.241Z,-3.85
2019-01-24T01:41:05.193Z,-3.82
2019-01-24T01:43:34.066Z,-3.82
2019-01-24T01:46:03.023Z,-3.80
2019-01-24T01:48:31.807Z,-3.82
2019-01-24T01:51:00.762Z,-3.83
2019-01-24T01:53:29.702Z,-3.83
2019-01-24T01:55:59.030Z,-3.81
2019-01-24T01:58:27.800Z,-3.83
2019-01-24T02:00:56.665Z,-3.81
2019-01-24T02:03:25.512Z,-3.79
2019-01-24T02:05:54.394Z,-3.76
2019-01-24T02:08:23.269Z,-3.72
2019-01-24T02:10:52.133Z,-3.73
2019-01-24T02:13:21.105Z,-3.75
2019-01-24T02:15:49.995Z,-3.70
2019-01-24T02:18:18.963Z,-3.69
2019-01-24T02:20:47.925Z,-3.76
2019-01-24T02:23:16.722Z,-3.80
2019-01-24T02:25:45.681Z,-3.79
2019-01-24T02:28:14.546Z,-3.78
2019-01-24T02:30:43.412Z,-3.70
2019-01-24T02:33:12.271Z,-3.74
2019-01-24T02:35:41.065Z,-3.72
2019-01-24T02:38:10.002Z,-3.74
2019-01-24T02:40:38.862Z,-3.79
2019-01-24T02:43:07.728Z,-3.78
2019-01-24T02:45:36.519Z,-3.82
2019-01-24T02:48:05.593Z,-3.80
2019-01-24T02:50:34.401Z,-3.80
2019-01-24T02:53:03.389Z,-3.80
2019-01-24T02:55:32.388Z,-3.84
2019-01-24T02:58:01.804Z,-3.84
2019-01-24T03:00:30.687Z,-3.82
2019-01-24T03:02:59.562Z,-3.85
2019-01-24T03:05:28.495Z,-3.84
2019-01-24T03:07:57.368Z,-3.83
2019-01-24T03:10:26.160Z,-3.73
2019-01-24T03:12:54.945Z,-3.81
2019-01-24T03:15:23.816Z,-3.85
2019-01-24T03:17:52.663Z,-3.87
2019-01-24T03:20:21.724Z,-3.89
2019-01-24T03:22:50.500Z,-3.89
2019-01-24T03:25:19.566Z,-3.90
2019-01-24T03:27:48.708Z,-3.91
2019-01-24T03:30:20.024Z,-3.94
2019-01-24T03:32:49.161Z,-3.95
2019-01-24T03:35:20.926Z,-3.95
2019-01-24T03:37:49.794Z,-3.97
2019-01-24T03:40:18.828Z,-3.99
2019-01-24T03:42:47.703Z,-3.97
2019-01-24T03:45:17.043Z,-3.95
2019-01-24T03:47:46.003Z,-3.78
2019-01-24T03:50:16.797Z,-3.54
2019-01-24T03:52:45.663Z,-3.69
2019-01-24T03:55:15.618Z,-3.51
2019-01-24T03:57:44.483Z,-3.51
2019-01-24T04:00:19.553Z,-3.61
2019-01-24T04:02:48.701Z,-3.84
2019-01-24T04:05:17.935Z,-3.99
2019-01-24T04:07:46.923Z,-3.88
2019-01-24T04:10:17.542Z,-3.72
2019-01-24T04:12:46.621Z,-3.44
2019-01-24T04:15:17.910Z,-3.51
2019-01-24T04:17:46.877Z,-3.66
2019-01-24T04:20:17.247Z,-3.93
2019-01-24T04:22:46.195Z,-3.98
2019-01-24T04:25:15.634Z,-4.01
2019-01-24T04:27:44.878Z,-3.73
2019-01-24T04:30:16.229Z,-3.94
2019-01-24T04:32:45.032Z,-4.06
2019-01-24T04:35:19.755Z,-4.06
2019-01-24T04:37:44.684Z,-4.06
2019-01-24T04:40:15.355Z,-4.05
2019-01-24T04:42:44.402Z,-4.08
2019-01-24T04:45:14.575Z,-4.12
2019-01-24T04:47:43.540Z,-4.11
2019-01-24T04:50:14.214Z,-4.11
2019-01-24T04:52:43.154Z,-4.09
2019-01-24T04:55:13.573Z,-4.08
2019-01-24T04:57:42.716Z,-4.00
2019-01-24T05:00:15.060Z,-3.93
2019-01-24T05:02:43.938Z,-3.76
2019-01-24T05:05:12.914Z,-3.57
2019-01-24T05:07:41.841Z,-3.90
2019-01-24T05:10:10.981Z,-4.09
2019-01-24T05:12:39.801Z,-3.95
2019-01-24T05:15:08.943Z,-3.89
2019-01-24T05:17:38.233Z,-4.02
2019-01-24T05:20:08.220Z,-4.08
2019-01-24T05:22:37.121Z,-3.84
2019-01-24T05:25:07.969Z,-4.07
2019-01-24T05:27:36.791Z,-4.13
2019-01-24T05:30:08.881Z,-4.17
2019-01-24T05:32:37.712Z,-4.16
2019-01-24T05:35:07.979Z,-4.08
2019-01-24T05:37:36.953Z,-4.09
2019-01-24T05:40:06.612Z,-4.16
2019-01-24T05:42:35.555Z,-4.18
2019-01-24T05:45:04.953Z,-4.11
2019-01-24T05:47:33.729Z,-4.19
2019-01-24T05:50:02.666Z,-4.17
2019-01-24T05:52:31.458Z,-3.96
2019-01-24T05:55:00.250Z,-3.71
2019-01-24T05:57:29.028Z,-3.75
2019-01-24T05:59:57.799Z,-3.76
2019-01-24T06:02:26.592Z,-3.51
2019-01-24T06:04:55.367Z,-3.42
2019-01-24T06:07:24.174Z,-3.60
2019-01-24T06:09:53.040Z,-3.90
2019-01-24T06:12:21.906Z,-4.11
2019-01-24T06:14:50.770Z,-4.21
2019-01-24T06:17:19.562Z,-4.29
2019-01-24T06:19:48.357Z,-4.28
2019-01-24T06:22:17.210Z,-4.29
2019-01-24T06:24:46.012Z,-4.22
2019-01-24T06:27:14.795Z,-4.25
2019-01-24T06:29:43.585Z,-4.25
2019-01-24T06:32:12.378Z,-4.25
2019-01-24T06:34:41.219Z,-4.24
2019-01-24T06:37:10.081Z,-4.25
2019-01-24T06:39:38.885Z,-4.24
2019-01-24T06:42:07.660Z,-4.27
2019-01-24T06:44:36.445Z,-4.23
2019-01-24T06:47:05.381Z,-4.25
2019-01-24T06:49:34.176Z,-4.15
2019-01-24T06:52:03.052Z,-4.04
2019-01-24T06:54:31.856Z,-4.11
2019-01-24T06:57:00.644Z,-4.18
2019-01-24T06:59:29.512Z,-4.21
2019-01-24T07:01:58.401Z,-4.24
2019-01-24T07:04:27.288Z,-4.05
2019-01-24T07:06:56.152Z,-3.84
2019-01-24T07:09:24.953Z,-3.71
2019-01-24T07:11:53.740Z,-4.00
2019-01-24T07:14:22.563Z,-4.01
2019-01-24T07:16:51.424Z,-3.91
2019-01-24T07:19:20.225Z,-3.60
2019-01-24T07:21:49.028Z,-3.66
2019-01-24T07:24:17.901Z,-3.41
2019-01-24T07:26:46.798Z,-3.65
2019-01-24T07:29:15.605Z,-3.73
2019-01-24T07:31:44.465Z,-3.79
2019-01-24T07:34:13.361Z,-3.95
2019-01-24T07:36:42.754Z,-3.85
2019-01-24T07:39:11.553Z,-3.93
2019-01-24T07:41:40.414Z,-3.90
2019-01-24T07:44:09.288Z,-3.88
2019-01-24T07:46:38.078Z,-3.84
2019-01-24T07:49:06.950Z,-3.52
2019-01-24T07:51:35.738Z,-3.62
2019-01-24T07:54:04.794Z,-3.60
2019-01-24T07:56:33.583Z,-3.69
2019-01-24T07:59:02.533Z,-3.57
2019-01-24T08:01:31.393Z,-3.58
2019-01-24T08:04:00.191Z,-3.57
2019-01-24T08:06:29.088Z,-3.43
2019-01-24T08:08:57.871Z,-3.37
2019-01-24T08:11:26.779Z,-3.33
2019-01-24T08:13:55.644Z,-3.42
2019-01-24T08:16:24.595Z,-3.46
2019-01-24T08:18:53.395Z,-3.47
2019-01-24T08:21:22.266Z,-3.47
2019-01-24T08:23:51.074Z,-3.27
2019-01-24T08:26:19.867Z,-3.45
2019-01-24T08:28:48.753Z,-3.53
2019-01-24T08:31:17.690Z,-3.25
2019-01-24T08:33:46.476Z,-3.32
2019-01-24T08:36:15.753Z,-3.35
2019-01-24T08:38:44.783Z,-3.72
2019-01-24T08:41:14.514Z,-3.82
2019-01-24T08:43:43.300Z,-3.66
2019-01-24T08:46:12.310Z,-3.67
2019-01-24T08:48:41.171Z,-3.69
2019-01-24T08:51:09.992Z,-3.54
2019-01-24T08:53:38.848Z,-3.14
2019-01-24T08:56:07.753Z,-3.38
2019-01-24T08:58:36.541Z,-3.14
2019-01-24T09:01:05.489Z,-3.14
2019-01-24T09:03:34.278Z,-3.08
2019-01-24T09:06:03.247Z,-2.81
2019-01-24T09:08:32.080Z,-2.65
2019-01-24T09:11:00.880Z,-2.54
2019-01-24T09:13:29.734Z,-2.67
2019-01-24T09:15:58.532Z,-2.72
2019-01-24T09:18:27.318Z,-2.68
2019-01-24T09:20:56.954Z,-2.51
2019-01-24T09:23:25.886Z,-2.36
2019-01-24T09:25:54.699Z,-2.35
2019-01-24T09:28:23.564Z,-2.23
2019-01-24T09:30:52.373Z,-2.13
2019-01-24T09:33:21.270Z,-1.97
2019-01-24T09:35:50.055Z,-1.82
2019-01-24T09:38:18.922Z,-1.95
2019-01-24T09:40:47.855Z,-1.60
2019-01-24T09:43:16.783Z,-1.54
2019-01-24T09:45:46.300Z,-1.43
2019-01-24T09:48:15.637Z,-1.51
2019-01-24T09:50:44.588Z,-1.62
2019-01-24T09:53:13.367Z,-1.53
2019-01-24T09:55:42.171Z,-1.70
2019-01-24T09:58:11.111Z,-1.57
2019-01-24T10:00:39.964Z,-2.16
2019-01-24T10:03:08.901Z,-1.93
2019-01-24T10:05:37.932Z,-2.10
2019-01-24T10:08:07.715Z,-1.78
2019-01-24T10:10:36.714Z,-2.12
2019-01-24T10:13:06.440Z,-2.18
2019-01-24T10:15:35.218Z,-1.79
2019-01-24T10:18:04.481Z,-1.63
2019-01-24T10:20:33.271Z,-1.49
2019-01-24T10:23:02.218Z,-1.27
2019-01-24T10:25:37.796Z,-1.33
2019-01-24T10:28:07.076Z,-1.27
2019-01-24T10:30:42.380Z,-2.09
2019-01-24T10:33:07.114Z,-1.96
2019-01-24T10:35:36.015Z,-1.70
2019-01-24T10:38:05.315Z,-1.66
2019-01-24T10:40:34.583Z,-1.66
2019-01-24T10:43:03.504Z,-1.27
2019-01-24T10:45:32.370Z,-1.18
2019-01-24T10:48:01.499Z,-1.17
2019-01-24T10:50:30.554Z,-1.17
2019-01-24T10:52:59.463Z,-1.55
2019-01-24T10:55:29.050Z,-1.44
2019-01-24T10:58:00.198Z,-1.80
2019-01-24T11:00:32.621Z,-1.93
2019-01-24T11:03:02.521Z,-1.60
2019-01-24T11:05:31.456Z,-1.74
2019-01-24T11:08:00.619Z,-1.40
2019-01-24T11:10:29.562Z,-1.22
2019-01-24T11:12:58.511Z,-1.06
2019-01-24T11:15:27.470Z,-1.26
2019-01-24T11:17:56.425Z,-1.15
2019-01-24T11:20:25.294Z,-1.62
2019-01-24T11:22:54.274Z,-1.54
2019-01-24T11:25:23.627Z,-1.31
2019-01-24T11:27:52.571Z,-1.36
2019-01-24T11:30:23.630Z,-1.22
2019-01-24T11:32:52.773Z,-1.01
2019-01-24T11:35:23.871Z,-1.01
2019-01-24T11:37:53.107Z,-0.82
2019-01-24T11:40:22.142Z,-1.08
2019-01-24T11:42:51.085Z,-1.52
2019-01-24T11:45:21.833Z,-1.37
2019-01-24T11:47:50.637Z,-0.95
2019-01-24T11:50:20.258Z,-0.84
2019-01-24T11:52:49.123Z,-0.70
2019-01-24T11:55:19.331Z,-0.83
2019-01-24T11:57:48.317Z,-0.91
2019-01-24T12:00:20.007Z,-0.65
2019-01-24T12:02:49.161Z,-0.65
2019-01-24T12:05:18.108Z,-0.50
2019-01-24T12:07:47.073Z,-0.70
2019-01-24T12:10:18.038Z,-0.83
2019-01-24T12:12:46.912Z,-0.89
2019-01-24T12:15:17.674Z,-1.37
2019-01-24T12:17:46.552Z,-1.46
2019-01-24T12:20:17.863Z,-1.52
2019-01-24T12:22:46.771Z,-1.39
2019-01-24T12:25:15.781Z,-1.63
2019-01-24T12:27:44.727Z,-1.59
2019-01-24T12:30:22.320Z,-1.81
2019-01-24T12:32:51.613Z,-1.67
2019-01-24T12:35:20.748Z,-1.42
2019-01-24T12:37:49.696Z,-1.53
2019-01-24T12:40:18.613Z,-1.50
2019-01-24T12:42:47.566Z,-1.42
2019-01-24T12:45:19.060Z,-1.42
2019-01-24T12:47:48.014Z,-1.11
2019-01-24T12:50:17.454Z,-1.18
2019-01-24T12:52:46.408Z,-1.01
2019-01-24T12:55:15.677Z,-1.04
2019-01-24T12:57:44.623Z,-1.01
2019-01-24T13:00:16.690Z,-1.05
2019-01-24T13:02:45.574Z,-0.95
2019-01-24T13:05:14.871Z,-0.85
2019-01-24T13:07:44.066Z,-1.35
2019-01-24T13:10:15.876Z,-0.95
2019-01-24T13:12:44.756Z,-1.35
2019-01-24T13:15:14.527Z,-1.23
2019-01-24T13:17:43.463Z,-1.14
2019-01-24T13:20:13.859Z,-1.12
2019-01-24T13:22:42.784Z,-1.16
2019-01-24T13:25:14.714Z,-1.26
2019-01-24T13:27:43.576Z,-1.21
2019-01-24T13:30:15.598Z,-1.16
2019-01-24T13:32:44.543Z,-1.29
2019-01-24T13:35:13.604Z,-1.43
2019-01-24T13:37:42.459Z,-1.82
2019-01-24T13:40:13.716Z,-1.85
2019-01-24T13:42:42.604Z,-1.75
2019-01-24T13:45:13.737Z,-1.80
2019-01-24T13:47:42.710Z,-1.56
2019-01-24T13:50:13.794Z,-1.59
2019-01-24T13:52:42.650Z,-1.65
2019-01-24T13:55:11.606Z,-1.68
2019-01-24T13:57:40.734Z,-1.76
2019-01-24T14:00:14.183Z,-2.02
2019-01-24T14:02:42.971Z,-1.89
2019-01-24T14:05:13.356Z,-1.75
2019-01-24T14:07:42.162Z,-1.56
2019-01-24T14:10:12.592Z,-1.66
2019-01-24T14:12:41.459Z,-1.93
2019-01-24T14:15:12.649Z,-1.88
2019-01-24T14:17:41.441Z,-1.89
2019-01-24T14:20:12.814Z,-1.79
2019-01-24T14:22:41.756Z,-1.91
2019-01-24T14:25:13.384Z,-2.05
2019-01-24T14:27:42.789Z,-2.19
2019-01-24T14:30:20.405Z,-2.26
2019-01-24T14:32:49.340Z,-2.14
2019-01-24T14:35:18.426Z,-2.13
2019-01-24T14:37:47.862Z,-2.02
2019-01-24T14:40:16.956Z,-2.31
2019-01-24T14:42:46.080Z,-2.09
2019-01-24T14:45:17.212Z,-2.07
2019-01-24T14:47:46.078Z,-2.09
2019-01-24T14:50:17.685Z,-1.97
2019-01-24T14:52:46.629Z,-1.86
2019-01-24T14:55:15.725Z,-1.95
2019-01-24T14:57:44.760Z,-2.05
2019-01-24T15:00:35.939Z,-1.76
2019-01-24T15:03:05.327Z,-2.03
2019-01-24T15:05:34.234Z,-2.08
2019-01-24T15:08:03.163Z,-1.81
2019-01-24T15:10:32.214Z,-1.69
2019-01-24T15:13:01.264Z,-1.72
2019-01-24T15:15:30.180Z,-1.80
2019-01-24T15:17:58.928Z,-1.91
2019-01-24T15:20:27.795Z,-1.93
2019-01-24T15:22:56.567Z,-1.96
2019-01-24T15:25:25.498Z,-2.03
2019-01-24T15:27:54.350Z,-2.09
2019-01-24T15:30:24.211Z,-2.14
2019-01-24T15:32:53.254Z,-2.26
2019-01-24T15:35:22.202Z,-2.11
2019-01-24T15:37:54.711Z,-2.08
2019-01-24T15:40:24.538Z,-1.95
2019-01-24T15:42:53.437Z,-2.14
2019-01-24T15:45:22.400Z,-2.33
2019-01-24T15:47:51.328Z,-2.20
2019-01-24T15:50:21.145Z,-2.32
2019-01-24T15:52:50.308Z,-2.24
2019-01-24T15:55:19.240Z,-2.11
2019-01-24T15:57:48.281Z,-2.11
2019-01-24T16:00:22.586Z,-2.00
2019-01-24T16:02:51.518Z,-1.95
2019-01-24T16:05:20.472Z,-2.04
2019-01-24T16:07:49.420Z,-1.99
2019-01-24T16:10:19.336Z,-1.93
2019-01-24T16:12:48.387Z,-2.05
2019-01-24T16:15:22.952Z,-2.16
2019-01-24T16:17:51.839Z,-2.21
2019-01-24T16:20:22.701Z,-2.39
2019-01-24T16:22:51.566Z,-2.38
2019-01-24T16:25:20.825Z,-2.33
2019-01-24T16:27:49.868Z,-2.18
2019-01-24T16:30:21.498Z,-2.32
2019-01-24T16:32:50.648Z,-2.20
2019-01-24T16:35:19.916Z,-2.33
2019-01-24T16:37:48.842Z,-2.30
2019-01-24T16:40:18.953Z,-2.31
2019-01-24T16:42:47.821Z,-2.36
2019-01-24T16:45:18.912Z,-2.46
2019-01-24T16:47:47.798Z,-2.62
2019-01-24T16:50:17.689Z,-2.59
2019-01-24T16:52:46.577Z,-2.57
2019-01-24T16:55:16.267Z,-2.78
2019-01-24T16:57:45.495Z,-2.50
2019-01-24T17:00:20.616Z,-2.50
2019-01-24T17:02:49.423Z,-2.36
2019-01-24T17:05:18.357Z,-2.30
2019-01-24T17:07:47.425Z,-2.43
2019-01-24T17:10:17.656Z,-2.71
2019-01-24T17:12:47.000Z,-2.76
2019-01-24T17:15:17.402Z,-2.57
2019-01-24T17:17:46.525Z,-2.50
2019-01-24T17:20:18.200Z,-2.64
2019-01-24T17:22:47.136Z,-2.77
2019-01-24T17:25:16.009Z,-2.74
2019-01-24T17:27:46.351Z,-2.52
2019-01-24T17:30:21.029Z,-2.87
2019-01-24T17:32:49.969Z,-2.83
2019-01-24T17:35:19.363Z,-2.94
2019-01-24T17:37:48.418Z,-2.93
2019-01-24T17:40:22.729Z,-2.74
2019-01-24T17:42:51.601Z,-2.79
2019-01-24T17:45:20.786Z,-2.70
2019-01-24T17:47:49.653Z,-2.80
2019-01-24T17:50:18.996Z,-2.84
2019-01-24T17:52:47.806Z,-2.77
2019-01-24T17:55:19.623Z,-2.83
2019-01-24T17:57:48.586Z,-2.74
2019-01-24T18:00:20.466Z,-2.72
2019-01-24T18:02:49.412Z,-2.65
2019-01-24T18:05:18.455Z,-2.74
2019-01-24T18:07:47.496Z,-2.82
2019-01-24T18:10:19.013Z,-2.84
2019-01-24T18:12:47.967Z,-2.65
2019-01-24T18:15:19.865Z,-2.69
2019-01-24T18:17:49.100Z,-2.50
2019-01-24T18:20:19.630Z,-2.65
2019-01-24T18:22:48.591Z,-2.60
2019-01-24T18:25:17.515Z,-2.83
2019-01-24T18:27:46.449Z,-2.94
2019-01-24T18:30:17.900Z,-2.69
2019-01-24T18:32:46.854Z,-2.53
2019-01-24T18:35:16.190Z,-2.43
2019-01-24T18:37:45.123Z,-2.40
2019-01-24T18:40:17.288Z,-2.51
2019-01-24T18:42:46.223Z,-2.58
2019-01-24T18:45:18.065Z,-2.70
2019-01-24T18:47:47.007Z,-2.85
2019-01-24T18:50:18.640Z,-2.57
2019-01-24T18:52:48.143Z,-2.56
2019-01-24T18:55:17.009Z,-2.34
2019-01-24T18:57:46.309Z,-2.47
2019-01-24T19:00:19.332Z,-2.46
2019-01-24T19:02:48.284Z,-2.28
2019-01-24T19:05:17.529Z,-2.74
2019-01-24T19:07:46.684Z,-2.58
2019-01-24T19:10:15.932Z,-2.62
2019-01-24T19:12:44.967Z,-2.72
2019-01-24T19:15:17.028Z,-2.59
2019-01-24T19:17:46.252Z,-2.54
2019-01-24T19:20:15.816Z,-2.68
2019-01-24T19:22:44.680Z,-2.53
2019-01-24T19:25:13.861Z,-2.61
2019-01-24T19:27:42.841Z,-2.52
2019-01-24T19:30:16.398Z,-2.61
2019-01-24T19:32:45.171Z,-2.44
2019-01-24T19:35:14.322Z,-2.54
2019-01-24T19:37:43.389Z,-2.74
2019-01-24T19:40:14.000Z,-2.60
2019-01-24T19:42:42.946Z,-2.35
2019-01-24T19:45:14.803Z,-2.59
2019-01-24T19:47:43.605Z,-2.41
2019-01-24T19:50:15.298Z,-2.50
2019-01-24T19:52:44.232Z,-2.47
2019-01-24T19:55:13.205Z,-2.64
2019-01-24T19:57:42.112Z,-2.87
2019-01-24T20:00:14.353Z,-2.81
2019-01-24T20:02:43.245Z,-2.92
2019-01-24T20:05:12.760Z,-2.98
2019-01-24T20:07:41.555Z,-2.88
2019-01-24T20:10:13.141Z,-2.68
2019-01-24T20:12:42.079Z,-2.39
2019-01-24T20:15:12.831Z,-2.46
2019-01-24T20:17:41.932Z,-2.67
2019-01-24T20:20:12.172Z,-2.58
2019-01-24T20:22:41.041Z,-2.59
2019-01-24T20:25:12.270Z,-2.75
2019-01-24T20:27:41.053Z,-2.74
2019-01-24T20:30:13.464Z,-2.42
2019-01-24T20:32:42.320Z,-2.16
2019-01-24T20:35:15.042Z,-2.35
2019-01-24T20:37:44.005Z,-2.42
2019-01-24T20:40:14.015Z,-2.58
2019-01-24T20:42:42.895Z,-2.59
2019-01-24T20:45:12.155Z,-2.63
2019-01-24T20:47:41.828Z,-2.80
2019-01-24T20:50:12.966Z,-2.75
2019-01-24T20:52:41.914Z,-2.68
2019-01-24T20:55:12.161Z,-2.62
2019-01-24T20:57:41.798Z,-2.72
2019-01-24T21:00:14.415Z,-2.56
2019-01-24T21:02:43.370Z,-2.67
2019-01-24T21:05:13.300Z,-2.76
2019-01-24T21:07:42.271Z,-2.78
2019-01-24T21:10:15.046Z,-2.82
2019-01-24T21:12:43.924Z,-2.79
2019-01-24T21:15:13.883Z,-2.69
2019-01-24T21:17:42.753Z,-2.70
2019-01-24T21:20:14.899Z,-2.66
2019-01-24T21:22:44.068Z,-2.79
2019-01-24T21:25:14.200Z,-2.85
2019-01-24T21:27:43.450Z,-2.79
2019-01-24T21:30:18.369Z,-2.76
2019-01-24T21:32:47.259Z,-2.87
2019-01-24T21:35:17.599Z,-2.95
2019-01-24T21:37:46.504Z,-2.95
2019-01-24T21:40:17.348Z,-2.79
2019-01-24T21:42:46.224Z,-2.82
2019-01-24T21:45:29.787Z,-2.77
2019-01-24T21:47:58.867Z,-2.83
2019-01-24T21:50:28.837Z,-2.77
2019-01-24T21:52:57.735Z,-2.83
2019-01-24T21:55:26.669Z,-2.75
2019-01-24T21:57:55.722Z,-2.84
2019-01-24T22:02:38.260Z,-2.81
2019-01-24T22:05:07.827Z,-2.95
2019-01-24T22:07:36.783Z,-2.97
2019-01-24T22:10:08.785Z,-3.01
2019-01-24T22:12:37.648Z,-3.01
2019-01-24T22:15:08.961Z,-2.97
2019-01-24T22:17:37.764Z,-2.98
2019-01-24T22:20:07.460Z,-2.92
2019-01-24T22:22:36.342Z,-2.99
2019-01-24T22:25:06.949Z,-3.00
2019-01-24T22:27:35.831Z,-2.90
2019-01-24T22:30:06.765Z,-2.97
2019-01-24T22:32:35.546Z,-2.91
2019-01-24T22:35:05.316Z,-3.05
2019-01-24T22:37:34.106Z,-3.05
2019-01-24T22:40:03.154Z,-2.96
2019-01-24T22:42:31.942Z,-3.01
2019-01-24T22:45:00.735Z,-3.02
2019-01-24T22:47:29.917Z,-3.06
2019-01-24T22:49:58.748Z,-3.13
2019-01-24T22:52:27.703Z,-3.10
2019-01-24T22:54:56.543Z,-2.96
2019-01-24T22:57:25.420Z,-3.00
2019-01-24T22:59:54.212Z,-2.90
2019-01-24T23:02:26.644Z,-2.95
2019-01-24T23:04:55.585Z,-2.86
2019-01-24T23:07:24.456Z,-2.77
2019-01-24T23:09:53.494Z,-2.88
2019-01-24T23:12:22.343Z,-3.03
2019-01-24T23:14:51.148Z,-3.06
2019-01-24T23:17:20.016Z,-3.12
2019-01-24T23:19:48.816Z,-2.96
2019-01-24T23:22:17.599Z,-3.10
2019-01-24T23:24:46.391Z,-3.05
2019-01-24T23:27:15.676Z,-3.06
2019-01-24T23:29:44.465Z,-3.15
2019-01-24T23:32:13.312Z,-3.08
2019-01-24T23:34:42.114Z,-3.10
2019-01-24T23:37:10.893Z,-3.18
2019-01-24T23:39:39.689Z,-3.01
2019-01-24T23:42:08.790Z,-3.00
2019-01-24T23:44:37.661Z,-3.13
2019-01-24T23:47:06.612Z,-3.21
2019-01-24T23:49:35.403Z,-3.12
2019-01-24T23:52:04.547Z,-3.09
2019-01-24T23:54:33.343Z,-3.19
2019-01-24T23:57:02.255Z,-3.00
2019-01-24T23:59:31.043Z,-3.08
